College Station, Texas
Current Conditions -  °F | °C
As of 1:53 AM on Thursday 18 Dec 2014 (Local Time) from KCLL Reporting Station
Overcast Overcast  
Wind Chill: 52°   Ceiling: 700
Heat Index: 52°   Visibility: 10mi
Dew Point: 49°   Wind: 5mph
Humidity: 89%   Direction: 30°NNE
Pressure: 30.1"   Gusts: NA
Location:  30.62°N, 96.32°W
Report Text: KCLL 180753Z 03004KT 10SM OVC007 11/09 A3010 RMK AO2 RAB0659E08 SLP190 P0000 T01110094
Loading
Personal Weather Stations






























Interactive Weather Map New forecast layout! Learn more

10-Day Weather Forecast

Advertisements
Track Severe Weather on mobile